Time;durP1;ratioP1;P1;durP2;ratioP2;P2;SDS_P1;SDS_P2;PMS_P1;PMS_P2;Temp;Humidity;BMP_temperature;BMP_pressure;BME280_temperature;BME280_humidity;BME280_pressure;Samples;Min_cycle;Max_cycle;Signal;HPM_P1;HPM_P2
2020/12/17 00:00:30;;;;;;;14.75;6.85;;;76.90;2227.20;;;;;;5076139;28;20111;-70
2020/12/17 00:02:56;;;;;;;14.45;7.53;;;77.00;2227.20;;;;;;5076937;28;20136;-69
2020/12/17 00:05:22;;;;;;;14.27;7.22;;;77.00;2227.20;;;;;;5076262;28;20443;-69
2020/12/17 00:07:48;;;;;;;17.42;10.20;;;76.90;2227.20;;;;;;5076675;28;20052;-72
2020/12/17 00:10:15;;;;;;;14.45;7.85;;;76.80;2227.20;;;;;;5076654;28;20481;-69
2020/12/17 00:12:45;;;;;;;11.73;6.90;;;76.80;2227.20;;;;;;5076632;28;20020;-70
2020/12/17 00:15:13;;;;;;;14.48;7.22;;;76.90;2227.20;;;;;;5076559;28;20032;-70
2020/12/17 00:17:43;;;;;;;13.00;7.00;;;77.00;2227.20;;;;;;5076866;28;20054;-69
2020/12/17 00:20:10;;;;;;;13.80;8.00;;;76.90;2227.20;;;;;;5079322;28;20025;-70
2020/12/17 00:22:38;;;;;;;12.05;6.93;;;77.00;2227.20;;;;;;5080290;28;20029;-71
2020/12/17 00:25:05;;;;;;;14.00;7.13;;;77.10;2227.20;;;;;;5079686;28;20426;-70
2020/12/17 00:27:31;;;;;;;17.17;9.38;;;77.10;2227.20;;;;;;5080215;28;20031;-72
2020/12/17 00:29:57;;;;;;;12.55;6.63;;;76.80;2227.20;;;;;;5080107;28;20111;-69
2020/12/17 00:32:23;;;;;;;14.30;7.47;;;76.90;2227.20;;;;;;5080375;28;20373;-70
2020/12/17 00:34:49;;;;;;;15.02;7.80;;;77.10;2227.20;;;;;;5080230;28;20036;-70
2020/12/17 00:37:14;;;;;;;12.07;6.90;;;76.90;2227.20;;;;;;5079690;28;20024;-71
2020/12/17 00:39:40;;;;;;;15.10;7.15;;;77.10;2227.20;;;;;;5080263;28;20375;-70
2020/12/17 00:42:06;;;;;;;12.27;7.03;;;76.90;2227.20;;;;;;5079338;28;20406;-70
2020/12/17 00:44:32;;;;;;;13.32;7.75;;;76.80;2227.20;;;;;;5079321;28;20032;-70
2020/12/17 00:46:58;;;;;;;14.30;6.93;;;76.90;2227.20;;;;;;5079801;28;20025;-71
2020/12/17 00:49:24;;;;;;;15.07;7.63;;;76.90;2227.20;;;;;;5079774;28;20036;-71
2020/12/17 00:51:50;;;;;;;11.85;7.13;;;76.80;2227.20;;;;;;5079698;28;20441;-72
2020/12/17 00:54:16;;;;;;;12.07;6.20;;;76.80;2227.20;;;;;;5079623;28;20124;-70
2020/12/17 00:56:48;;;;;;;13.27;7.15;;;52.10;2227.20;;;;;;5079644;28;20034;-71
2020/12/17 00:59:14;;;;;;;12.65;7.55;;;52.00;2227.20;;;;;;5079858;28;20406;-71
2020/12/17 01:01:40;;;;;;;11.18;7.28;;;76.80;2227.20;;;;;;5079530;28;20060;-70
2020/12/17 01:04:06;;;;;;;14.57;8.18;;;52.10;2227.20;;;;;;5079405;28;20071;-71
2020/12/17 01:06:32;;;;;;;12.40;7.03;;;51.90;2227.20;;;;;;5079495;28;20056;-71
2020/12/17 01:08:57;;;;;;;15.63;7.10;;;52.00;2227.20;;;;;;5079385;28;20416;-70
2020/12/17 01:11:27;;;;;;;11.13;6.63;;;51.90;2227.20;;;;;;5079101;28;20035;-71
2020/12/17 01:13:53;;;;;;;14.55;6.90;;;51.80;2227.20;;;;;;5079253;28;20044;-71
2020/12/17 01:16:19;;;;;;;13.25;6.45;;;51.90;2227.20;;;;;;5079259;28;20078;-70
2020/12/17 01:18:45;;;;;;;12.05;6.50;;;51.90;2227.20;;;;;;5079318;28;20034;-73
2020/12/17 01:21:11;;;;;;;11.38;6.20;;;52.00;2227.20;;;;;;5079490;28;20024;-70
2020/12/17 01:23:37;;;;;;;11.20;6.25;;;51.80;2227.20;;;;;;5078850;28;20082;-70
2020/12/17 01:26:08;;;;;;;10.63;5.63;;;51.80;2227.20;;;;;;5078572;28;20034;-70
2020/12/17 01:28:35;;;;;;;10.60;6.40;;;51.90;2227.20;;;;;;5079436;28;20052;-71
2020/12/17 01:31:12;;;;;;;9.52;5.95;;;51.80;2227.20;;;;;;5077802;28;20415;-70
2020/12/17 01:33:40;;;;;;;12.70;6.72;;;51.80;2227.20;;;;;;5078831;28;20028;-71
2020/12/17 01:36:08;;;;;;;15.38;8.10;;;51.90;2227.20;;;;;;5079480;28;20077;-69
2020/12/17 01:38:34;;;;;;;13.50;7.00;;;51.80;2227.20;;;;;;5078659;28;20025;-70
2020/12/17 01:41:01;;;;;;;12.95;7.03;;;51.90;2227.20;;;;;;5078528;28;20075;-70
2020/12/17 01:43:26;;;;;;;11.20;7.20;;;52.10;2227.20;;;;;;5078762;28;20057;-71
2020/12/17 01:45:53;;;;;;;12.73;7.28;;;52.10;2227.20;;;;;;5078440;28;20024;-70
2020/12/17 01:48:20;;;;;;;14.25;7.03;;;52.10;2227.20;;;;;;5078970;28;20031;-70
2020/12/17 01:50:47;;;;;;;13.63;7.68;;;52.10;2227.20;;;;;;5078637;28;20024;-70
2020/12/17 01:53:14;;;;;;;14.63;8.00;;;52.00;2227.20;;;;;;5078236;28;20430;-70
2020/12/17 01:55:40;;;;;;;12.68;7.30;;;52.10;2227.20;;;;;;5078529;28;20075;-71
2020/12/17 01:58:10;;;;;;;12.48;6.93;;;52.00;2227.20;;;;;;5078486;28;20078;-70
2020/12/17 02:00:37;;;;;;;17.63;9.30;;;51.90;2227.20;;;;;;5078169;28;20025;-72
2020/12/17 02:03:06;;;;;;;12.77;7.68;;;51.80;2227.20;;;;;;5078406;28;20376;-71
2020/12/17 02:05:32;;;;;;;;;;;51.90;2227.20;;;;;;5078772;28;20057;-70
2020/12/17 02:08:00;;;;;;;14.90;8.13;;;52.00;2227.20;;;;;;5078009;28;19905;-69
2020/12/17 02:10:27;;;;;;;13.80;6.97;;;52.00;2227.20;;;;;;5078208;28;20137;-70
2020/12/17 02:12:54;;;;;;;11.90;6.07;;;52.00;2227.20;;;;;;5078000;28;20024;-72
2020/12/17 02:15:21;;;;;;;14.32;6.72;;;52.10;2227.20;;;;;;5077816;28;20028;-71
2020/12/17 02:17:50;;;;;;;12.18;6.03;;;52.10;2227.20;;;;;;5078040;28;20024;-71
2020/12/17 02:20:16;;;;;;;10.82;6.95;;;76.80;2227.20;;;;;;5077902;28;20028;-70
2020/12/17 02:22:42;;;;;;;13.68;6.65;;;76.90;2227.20;;;;;;5077993;28;20031;-69
2020/12/17 02:25:13;;;;;;;12.73;6.10;;;76.90;2227.20;;;;;;5077886;28;20032;-70
2020/12/17 02:27:40;;;;;;;13.45;5.88;;;76.90;2227.20;;;;;;5077947;28;20031;-71
2020/12/17 02:30:08;;;;;;;13.07;6.93;;;76.80;2227.20;;;;;;5077828;28;20111;-72
2020/12/17 02:32:34;;;;;;;11.27;6.57;;;52.00;2227.20;;;;;;5077743;28;20031;-70
2020/12/17 02:34:59;;;;;;;11.00;6.50;;;52.00;2227.20;;;;;;5077460;28;20040;-70
2020/12/17 02:37:25;;;;;;;13.30;6.88;;;52.10;2227.20;;;;;;5077433;28;20347;-72
2020/12/17 02:39:51;;;;;;;14.23;6.85;;;52.00;2227.20;;;;;;5077680;28;20024;-70
2020/12/17 02:42:18;;;;;;;11.55;6.43;;;52.00;2227.20;;;;;;5077226;28;20035;-71
2020/12/17 02:44:44;;;;;;;10.88;6.07;;;51.80;2227.20;;;;;;5077518;28;20059;-70
2020/12/17 02:47:09;;;;;;;13.35;6.03;;;51.80;2227.20;;;;;;5077509;28;20028;-71
2020/12/17 02:49:35;;;;;;;11.00;6.70;;;51.90;2227.20;;;;;;5077236;28;20347;-71
2020/12/17 02:52:01;;;;;;;11.75;6.60;;;51.90;2227.20;;;;;;5077716;28;20077;-72
2020/12/17 02:54:27;;;;;;;12.50;6.20;;;51.90;2227.20;;;;;;5077563;28;20040;-69
2020/12/17 02:56:53;;;;;;;13.93;7.13;;;51.70;2227.20;;;;;;5077390;28;20370;-70
2020/12/17 02:59:18;;;;;;;12.55;6.60;;;51.70;2227.20;;;;;;5077046;28;20082;-70
2020/12/17 03:01:44;;;;;;;12.07;6.70;;;51.70;2227.20;;;;;;5077042;28;20423;-70
2020/12/17 03:04:10;;;;;;;12.70;6.95;;;51.80;2227.20;;;;;;5076895;28;20099;-71
2020/12/17 03:06:36;;;;;;;10.52;6.38;;;51.80;2227.20;;;;;;5077515;28;20029;-70
2020/12/17 03:09:04;;;;;;;13.23;6.60;;;52.10;2227.20;;;;;;5077535;28;20028;-70
2020/12/17 03:11:30;;;;;;;28.67;6.57;;;52.00;2227.20;;;;;;5076974;28;20434;-71
2020/12/17 03:13:55;;;;;;;9.88;5.85;;;52.00;2227.20;;;;;;5076846;28;20037;-71
2020/12/17 03:16:21;;;;;;;15.55;7.20;;;52.10;2227.20;;;;;;5076573;28;20048;-70
2020/12/17 03:18:47;;;;;;;13.00;6.53;;;52.00;2227.20;;;;;;5077407;28;20335;-70
2020/12/17 03:21:13;;;;;;;13.93;6.95;;;52.00;2227.20;;;;;;5077128;28;20052;-70
2020/12/17 03:23:39;;;;;;;11.30;6.53;;;51.90;2227.20;;;;;;5077067;28;20115;-70
2020/12/17 03:26:05;;;;;;;12.15;6.72;;;52.00;2227.20;;;;;;5077090;28;20108;-70
2020/12/17 03:28:31;;;;;;;10.90;6.53;;;52.10;2227.20;;;;;;5077039;28;20032;-70
2020/12/17 03:30:57;;;;;;;15.38;6.53;;;52.10;2227.20;;;;;;5076434;28;20024;-71
2020/12/17 03:33:23;;;;;;;13.52;7.13;;;52.10;2227.20;;;;;;5076914;28;20017;-73
2020/12/17 03:35:49;;;;;;;11.73;6.15;;;51.80;2227.20;;;;;;5076999;28;20086;-69
2020/12/17 03:38:14;;;;;;;13.25;6.63;;;51.60;2227.20;;;;;;5076996;28;20032;-70
2020/12/17 03:40:40;;;;;;;11.90;6.50;;;51.50;2227.20;;;;;;5076640;28;20052;-69
2020/12/17 03:43:06;;;;;;;14.02;7.38;;;51.60;2227.20;;;;;;5077199;28;20039;-69
2020/12/17 03:45:32;;;;;;;16.02;7.90;;;51.80;2227.20;;;;;;5076303;28;20024;-70
2020/12/17 03:47:57;;;;;;;20.48;9.05;;;51.90;2227.20;;;;;;5077168;28;20024;-70
2020/12/17 03:50:23;;;;;;;17.58;8.60;;;52.00;2227.20;;;;;;5076820;28;20110;-71
2020/12/17 03:52:49;;;;;;;17.17;7.13;;;52.00;2227.20;;;;;;5076573;28;20373;-70
2020/12/17 03:55:15;;;;;;;12.70;6.95;;;51.90;2227.20;;;;;;5079804;28;20035;-71
2020/12/17 03:57:40;;;;;;;13.82;6.85;;;51.90;2227.20;;;;;;5080480;28;20450;-70
2020/12/17 04:00:07;;;;;;;12.50;6.47;;;51.80;2227.20;;;;;;5080425;28;20111;-70
2020/12/17 04:02:33;;;;;;;12.05;6.65;;;51.70;2227.20;;;;;;5080349;28;20416;-69
2020/12/17 04:04:59;;;;;;;12.90;7.40;;;51.50;2227.20;;;;;;5080121;28;20104;-70
2020/12/17 04:07:25;;;;;;;13.07;6.63;;;51.40;2227.20;;;;;;5080350;28;20102;-70
2020/12/17 04:09:50;;;;;;;13.25;7.25;;;51.50;2227.20;;;;;;5080658;28;20046;-70
2020/12/17 04:12:16;;;;;;;12.35;7.10;;;51.40;2227.20;;;;;;5080173;28;20028;-70
2020/12/17 04:14:42;;;;;;;12.13;6.90;;;51.40;2227.20;;;;;;5080642;28;20407;-70
2020/12/17 04:17:08;;;;;;;13.70;6.90;;;51.40;2227.20;;;;;;5080358;28;20064;-70
2020/12/17 04:19:34;;;;;;;13.40;6.97;;;51.50;2227.20;;;;;;5080118;28;20432;-71
2020/12/17 04:22:00;;;;;;;14.88;6.82;;;51.70;2227.20;;;;;;5080297;28;20054;-69
2020/12/17 04:24:26;;;;;;;14.00;7.25;;;51.70;2227.20;;;;;;5062333;28;20031;-70
2020/12/17 04:26:53;;;;;;;12.55;6.60;;;51.80;2227.20;;;;;;5079922;28;20025;-69
2020/12/17 04:29:19;;;;;;;13.05;7.53;;;51.80;2227.20;;;;;;5079951;28;20131;-69
2020/12/17 04:31:45;;;;;;;12.20;6.63;;;51.60;2227.20;;;;;;5080116;28;20103;-72
2020/12/17 04:34:11;;;;;;;11.80;6.45;;;51.50;2227.20;;;;;;5080011;28;20040;-70
2020/12/17 04:36:38;;;;;;;14.75;6.93;;;51.70;2227.20;;;;;;5079715;28;20028;-70
2020/12/17 04:39:04;;;;;;;17.60;8.05;;;51.80;2227.20;;;;;;5080104;28;20024;-70
2020/12/17 04:41:31;;;;;;;21.58;9.48;;;51.80;2227.20;;;;;;5079637;28;20028;-70
2020/12/17 04:43:58;;;;;;;20.25;9.07;;;51.60;2227.20;;;;;;5080174;28;20052;-70
2020/12/17 04:46:26;;;;;;;24.58;9.20;;;51.50;2227.20;;;;;;5080110;28;20104;-71
2020/12/17 04:48:53;;;;;;;16.38;8.85;;;51.40;2227.20;;;;;;5079829;28;20059;-70
2020/12/17 04:51:20;;;;;;;13.73;7.30;;;51.50;2227.20;;;;;;5079496;28;20027;-70
2020/12/17 04:53:48;;;;;;;20.63;7.78;;;51.70;2227.20;;;;;;5079942;28;20404;-72
2020/12/17 04:56:16;;;;;;;14.82;7.13;;;51.70;2227.20;;;;;;5079525;28;20020;-70
2020/12/17 04:58:47;;;;;;;15.13;7.13;;;51.60;2227.20;;;;;;5079669;28;20028;-69
2020/12/17 05:01:18;;;;;;;13.95;7.05;;;51.60;2227.20;;;;;;5079755;28;20028;-70
2020/12/17 05:03:48;;;;;;;15.07;7.25;;;51.70;2227.20;;;;;;5079069;28;20024;-70
2020/12/17 05:06:24;;;;;;;15.27;7.75;;;51.70;2227.20;;;;;;5078445;28;20025;-70
2020/12/17 05:08:52;;;;;;;12.88;6.85;;;51.60;2227.20;;;;;;5079798;28;20103;-70
2020/12/17 05:11:18;;;;;;;15.00;7.18;;;51.20;2227.20;;;;;;5079646;28;20054;-70
2020/12/17 05:13:44;;;;;;;13.43;7.25;;;51.20;2227.20;;;;;;5079269;28;20064;-70
2020/12/17 05:16:09;;;;;;;24.15;13.38;;;51.30;2227.20;;;;;;5079059;28;20052;-69
2020/12/17 05:18:35;;;;;;;284.58;134.20;;;51.50;2227.20;;;;;;5078717;28;20020;-72
2020/12/17 05:21:02;;;;;;;28.98;16.27;;;51.60;2227.20;;;;;;5078946;28;20051;-70
2020/12/17 05:23:28;;;;;;;15.25;7.80;;;51.40;2227.20;;;;;;5078650;28;20020;-69
2020/12/17 05:25:55;;;;;;;15.68;8.82;;;51.30;2227.20;;;;;;5079169;28;20040;-71
2020/12/17 05:28:21;;;;;;;49.85;27.35;;;51.40;2227.20;;;;;;5078872;28;20020;-71
2020/12/17 05:30:47;;;;;;;228.15;102.97;;;51.50;2227.20;;;;;;5079064;28;20028;-71
2020/12/17 05:33:14;;;;;;;152.80;69.90;;;51.50;2227.20;;;;;;5078999;28;20024;-70
2020/12/17 05:35:41;;;;;;;39.42;23.70;;;51.50;2227.20;;;;;;5078882;28;20125;-70
2020/12/17 05:38:09;;;;;;;20.65;12.07;;;51.60;2227.20;;;;;;5078917;28;20020;-70
2020/12/17 05:40:44;;;;;;;16.75;9.85;;;51.60;2227.20;;;;;;5078821;28;20021;-70
2020/12/17 05:43:10;;;;;;;15.68;7.60;;;51.40;2227.20;;;;;;5078841;28;20028;-72
2020/12/17 05:45:37;;;;;;;14.75;8.10;;;26.40;2201.60;;;;;;5078834;28;20024;-70
2020/12/17 05:48:20;;;;;;;25.70;10.68;;;51.20;2227.20;;;;;;5078881;28;20078;-70
2020/12/17 05:50:48;;;;;;;28.38;18.55;;;51.30;2227.20;;;;;;5078624;28;20032;-71
2020/12/17 05:53:15;;;;;;;27.42;17.15;;;51.20;2227.20;;;;;;5078569;28;20029;-70
2020/12/17 05:55:42;;;;;;;32.08;19.75;;;26.50;2201.60;;;;;;5077524;28;20386;-70
2020/12/17 05:58:10;;;;;;;94.47;49.05;;;26.40;2201.60;;;;;;5077872;28;20055;-70
2020/12/17 06:00:36;;;;;;;117.03;54.13;;;51.20;2227.20;;;;;;5078158;28;20020;-70
2020/12/17 06:03:02;;;;;;;138.32;65.28;;;51.30;2227.20;;;;;;5078657;28;20116;-71
2020/12/17 06:05:31;;;;;;;114.20;44.95;;;51.40;2227.20;;;;;;5078010;28;20056;-70
2020/12/17 06:08:00;;;;;;;68.40;31.67;;;51.70;2227.20;;;;;;5078022;28;20021;-70
2020/12/17 06:10:30;;;;;;;96.28;26.92;;;51.70;2227.20;;;;;;5078544;28;20407;-70
2020/12/17 06:12:58;;;;;;;157.40;43.10;;;51.70;2227.20;;;;;;5077948;28;20459;-70
2020/12/17 06:15:26;;;;;;;158.07;22.48;;;51.70;2227.20;;;;;;5077806;28;20089;-71
2020/12/17 06:17:57;;;;;;;158.27;18.60;;;51.50;2227.20;;;;;;5078033;28;20020;-69
2020/12/17 06:20:26;;;;;;;131.48;15.80;;;51.50;2227.20;;;;;;5077187;28;20343;-70
2020/12/17 06:22:53;;;;;;;95.45;17.77;;;51.70;2227.20;;;;;;5078046;28;20020;-69
2020/12/17 06:25:19;;;;;;;59.50;26.45;;;51.80;2227.20;;;;;;5077677;28;20335;-71
2020/12/17 06:27:47;;;;;;;59.70;20.10;;;51.80;2227.20;;;;;;5077918;28;20025;-70
2020/12/17 06:30:17;;;;;;;85.73;26.10;;;51.80;2227.20;;;;;;5078224;28;20390;-70
2020/12/17 06:32:43;;;;;;;48.90;19.75;;;51.90;2227.20;;;;;;5077273;28;20079;-70
2020/12/17 06:35:28;;;;;;;51.72;17.67;;;52.00;2227.20;;;;;;5077465;28;20308;-70
2020/12/17 06:37:55;;;;;;;60.47;23.60;;;76.80;2227.20;;;;;;5078004;28;20020;-70
2020/12/17 06:40:28;;;;;;;50.78;17.13;;;76.90;2227.20;;;;;;5077108;28;20340;-70
2020/12/17 06:42:55;;;;;;;252.93;22.08;;;52.10;2227.20;;;;;;5077905;28;20031;-72
2020/12/17 06:45:31;;;;;;;106.43;16.70;;;51.80;2227.20;;;;;;5077846;28;20032;-69
2020/12/17 06:47:58;;;;;;;139.10;17.15;;;76.80;2227.20;;;;;;5077545;28;20047;-70
2020/12/17 06:50:37;;;;;;;233.50;30.98;;;77.10;2227.20;;;;;;5077507;28;20028;-70
2020/12/17 06:53:03;;;;;;;167.10;31.80;;;77.20;2227.20;;;;;;5078072;28;20021;-71
2020/12/17 06:55:51;;;;;;;141.52;23.83;;;76.80;2227.20;;;;;;5077686;28;20028;-70
2020/12/17 06:58:24;;;;;;;110.45;21.05;;;52.10;2227.20;;;;;;5075857;28;20029;-70
2020/12/17 07:00:53;;;;;;;96.22;21.20;;;51.90;2227.20;;;;;;5065193;28;20032;-70
2020/12/17 07:03:46;;;;;;;127.95;23.52;;;76.90;2227.20;;;;;;5075331;28;20313;-73
2020/12/17 07:06:20;;;;;;;127.25;20.75;;;77.20;2227.20;;;;;;5065676;28;20509;-70
2020/12/17 07:08:50;;;;;;;87.75;17.77;;;76.90;2227.20;;;;;;5076608;28;20051;-69
2020/12/17 07:11:35;;;;;;;133.68;19.38;;;76.90;2227.20;;;;;;5076772;28;20055;-69
2020/12/17 07:14:25;;;;;;;63.47;15.60;;;77.10;2227.20;;;;;;5075919;28;20039;-70
2020/12/17 07:17:03;;;;;;;67.13;16.83;;;77.30;2227.20;;;;;;5065844;28;20037;-70
2020/12/17 07:19:41;;;;;;;65.57;12.75;;;77.70;2227.20;;;;;;5076335;28;20017;-70
2020/12/17 07:22:14;;;;;;;106.10;14.55;;;102.40;2227.20;;;;;;5075930;28;20039;-70
2020/12/17 07:24:44;;;;;;;74.18;13.43;;;77.50;2227.20;;;;;;5070911;28;20029;-72
2020/12/17 07:27:12;;;;;;;77.85;16.55;;;77.40;2227.20;;;;;;5075951;28;20028;-69
2020/12/17 07:29:42;;;;;;;85.05;14.95;;;77.30;2227.20;;;;;;5070150;28;20021;-69
2020/12/17 07:32:29;;;;;;;37.15;13.30;;;77.30;2227.20;;;;;;5076327;28;20028;-69
2020/12/17 07:35:14;;;;;;;40.90;11.57;;;77.60;2227.20;;;;;;5076402;28;20468;-70
2020/12/17 07:37:56;;;;;;;30.10;12.88;;;77.60;2227.20;;;;;;5076163;28;20340;-71
2020/12/17 07:40:53;;;;;;;33.35;12.38;;;77.60;2227.20;;;;;;5076980;28;20017;-72
2020/12/17 07:43:20;;;;;;;40.13;14.15;;;77.60;2227.20;;;;;;5014548;28;20042;-70
2020/12/17 07:45:58;;;;;;;40.38;18.17;;;77.70;2227.20;;;;;;5014990;28;20037;-70
2020/12/17 07:48:47;;;;;;;26.08;12.75;;;102.40;2227.20;;;;;;5014860;28;20396;-69
2020/12/17 07:51:13;;;;;;;31.08;14.43;;;103.10;2227.20;;;;;;5013474;28;20034;-70
2020/12/17 07:53:40;;;;;;;36.20;14.88;;;128.00;2252.80;;;;;;5014670;28;20030;-72
2020/12/17 07:56:07;;;;;;;53.47;16.35;;;128.30;2252.80;;;;;;5014302;28;20144;-70
2020/12/17 07:58:33;;;;;;;36.50;16.80;;;128.30;2252.80;;;;;;5013329;28;20627;-70
2020/12/17 08:01:00;;;;;;;38.42;16.77;;;128.10;2252.80;;;;;;5008036;28;20473;-70
2020/12/17 08:03:27;;;;;;;37.60;16.88;;;103.30;2227.20;;;;;;5012885;28;20147;-70
2020/12/17 08:06:06;;;;;;;54.03;18.38;;;102.90;2227.20;;;;;;5014275;28;20061;-68
2020/12/17 08:08:32;;;;;;;52.17;18.80;;;103.10;2227.20;;;;;;5014528;28;20038;-70
2020/12/17 08:10:58;;;;;;;73.90;32.40;;;103.20;2227.20;;;;;;5014509;28;20038;-68
2020/12/17 08:13:25;;;;;;;257.50;106.45;;;103.00;2227.20;;;;;;5014582;28;20030;-70
2020/12/17 08:15:54;;;;;;;107.38;41.00;;;103.00;2227.20;;;;;;5014682;28;20034;-70
2020/12/17 08:18:30;;;;;;;59.53;26.25;;;103.30;2227.20;;;;;;5014211;28;20037;-70
2020/12/17 08:21:08;;;;;;;71.45;23.42;;;128.30;2252.80;;;;;;5073505;28;20025;-69
2020/12/17 08:23:44;;;;;;;49.92;23.90;;;128.40;2252.80;;;;;;5076642;28;20020;-70
2020/12/17 08:26:13;;;;;;;64.30;31.42;;;128.70;2252.80;;;;;;5075383;28;20029;-70
2020/12/17 08:28:41;;;;;;;69.68;34.65;;;128.90;2252.80;;;;;;5073471;28;20029;-66
2020/12/17 08:31:20;;;;;;;43.97;25.70;;;153.60;2252.80;;;;;;5056005;28;20102;-68
2020/12/17 08:33:49;;;;;;;35.58;19.08;;;153.80;2252.80;;;;;;5066038;28;20059;-67
2020/12/17 08:36:21;;;;;;;35.95;19.40;;;128.80;2252.80;;;;;;5061888;28;20466;-68
2020/12/17 08:39:07;;;;;;;39.33;17.23;;;153.80;2252.80;;;;;;5074074;28;20439;-67
2020/12/17 08:41:53;;;;;;;38.88;18.73;;;153.60;2252.80;;;;;;5079453;28;20024;-66
2020/12/17 08:44:31;;;;;;;39.38;16.80;;;153.60;2252.80;;;;;;5079853;28;20347;-68
2020/12/17 08:46:59;;;;;;;36.10;18.25;;;154.10;2252.80;;;;;;5079514;28;20028;-67
2020/12/17 08:49:26;;;;;;;48.88;19.10;;;154.30;2252.80;;;;;;5079446;28;20036;-67
2020/12/17 08:51:52;;;;;;;49.85;22.90;;;154.20;2252.80;;;;;;5070288;28;20021;-69
2020/12/17 08:54:31;;;;;;;81.18;29.40;;;154.50;2252.80;;;;;;5067839;28;20032;-69
2020/12/17 08:56:58;;;;;;;;;;;154.50;2252.80;;;;;;5068472;28;20031;-67
2020/12/17 08:59:23;;;;;;;154.23;28.60;;;179.50;2252.80;;;;;;5068065;28;19908;-70
2020/12/17 09:01:50;;;;;;;157.43;26.98;;;179.20;2252.80;;;;;;5077703;28;20496;-70
2020/12/17 09:04:19;;;;;;;90.05;22.77;;;154.30;2252.80;;;;;;5079084;28;20114;-67
2020/12/17 09:06:53;;;;;;;86.45;22.20;;;154.50;2252.80;;;;;;5074091;28;20437;-68
2020/12/17 09:09:26;;;;;;;73.40;22.25;;;154.50;2252.80;;;;;;5065189;28;20024;-68
2020/12/17 09:11:58;;;;;;;78.57;24.25;;;154.40;2252.80;;;;;;5075070;28;20024;-69
2020/12/17 09:14:33;;;;;;;86.35;22.90;;;154.20;2252.80;;;;;;5071449;28;20048;-68
2020/12/17 09:17:15;;;;;;;99.45;23.73;;;154.20;2252.80;;;;;;5063713;28;20052;-68
2020/12/17 09:19:43;;;;;;;83.68;25.58;;;154.20;2252.80;;;;;;5079474;28;20408;-68
2020/12/17 09:22:09;;;;;;;90.38;26.00;;;154.40;2252.80;;;;;;5078866;28;20076;-67
2020/12/17 09:24:39;;;;;;;100.22;28.23;;;154.30;2252.80;;;;;;5079225;28;20161;-67
2020/12/17 09:27:33;;;;;;;80.00;24.85;;;179.20;2252.80;;;;;;5079227;28;20087;-69
2020/12/17 09:30:04;;;;;;;86.40;31.42;;;179.20;2252.80;;;;;;5065203;28;20052;-69
2020/12/17 09:32:37;;;;;;;84.28;29.70;;;179.70;2252.80;;;;;;5057438;28;20111;-69
2020/12/17 09:35:09;;;;;;;69.32;32.20;;;179.70;2252.80;;;;;;5058870;28;20055;-69
2020/12/17 09:37:36;;;;;;;110.10;26.60;;;180.00;2201.60;;;;;;5058236;28;20321;-70
2020/12/17 09:40:05;;;;;;;136.02;25.52;;;180.10;2201.60;;;;;;5058727;28;20032;-70
2020/12/17 09:42:31;;;;;;;126.30;25.67;;;205.00;2176.00;;;;;;5058235;28;20087;-68
2020/12/17 09:44:56;;;;;;;119.50;28.33;;;205.00;2150.40;;;;;;5058625;28;20032;-68
2020/12/17 09:47:34;;;;;;;68.95;21.20;;;205.20;2124.80;;;;;;5058541;28;20107;-69
2020/12/17 09:50:08;;;;;;;87.28;24.27;;;205.10;2099.20;;;;;;5058287;28;20025;-69
2020/12/17 09:52:34;;;;;;;46.90;21.90;;;180.10;2176.00;;;;;;5057541;28;20045;-69
2020/12/17 09:55:00;;;;;;;103.38;24.65;;;179.80;2176.00;;;;;;5058659;28;20032;-71
2020/12/17 09:57:38;;;;;;;59.33;29.20;;;179.70;2227.20;;;;;;5058423;28;20055;-70
2020/12/17 10:00:06;;;;;;;78.90;25.58;;;179.90;2201.60;;;;;;5073247;28;20035;-69
2020/12/17 10:02:32;;;;;;;79.63;25.08;;;180.00;2201.60;;;;;;5077500;28;20032;-69
2020/12/17 10:04:58;;;;;;;62.50;25.55;;;204.80;2176.00;;;;;;5077884;28;20063;-69
2020/12/17 10:07:24;;;;;;;81.60;27.23;;;180.00;2201.60;;;;;;5078470;28;20047;-71
2020/12/17 10:09:50;;;;;;;82.95;35.58;;;204.80;2176.00;;;;;;5077852;28;20454;-69
2020/12/17 10:12:16;;;;;;;93.20;61.55;;;204.80;2201.60;;;;;;5078273;28;20098;-69
2020/12/17 10:14:41;;;;;;;65.38;25.90;;;179.90;2227.20;;;;;;5077880;28;20032;-71
2020/12/17 10:17:07;;;;;;;92.97;26.27;;;179.70;2227.20;;;;;;5077461;28;20107;-70
2020/12/17 10:19:33;;;;;;;73.40;26.80;;;179.40;2252.80;;;;;;5077975;28;20031;-69
2020/12/17 10:21:59;;;;;;;54.80;22.42;;;179.50;2252.80;;;;;;5077624;28;20028;-72
2020/12/17 10:24:26;;;;;;;55.08;24.63;;;179.80;2227.20;;;;;;5077466;28;20120;-69
2020/12/17 10:26:52;;;;;;;85.22;26.92;;;180.00;2201.60;;;;;;5078088;28;20031;-70
2020/12/17 10:29:18;;;;;;;65.45;30.38;;;204.80;2176.00;;;;;;5077908;28;20031;-69
2020/12/17 10:31:47;;;;;;;82.90;27.95;;;204.80;2201.60;;;;;;5077415;28;20023;-68
2020/12/17 10:34:15;;;;;;;65.82;27.58;;;205.00;2150.40;;;;;;5077800;28;20040;-68
2020/12/17 10:36:41;;;;;;;60.75;28.98;;;205.50;2124.80;;;;;;5077737;28;20032;-69
2020/12/17 10:39:08;;;;;;;69.68;27.42;;;230.40;2099.20;;;;;;5077069;28;20028;-67
2020/12/17 10:41:36;;;;;;;56.83;26.27;;;231.00;2022.40;;;;;;5077192;28;20027;-69
2020/12/17 10:44:03;;;;;;;57.30;26.25;;;256.10;1996.80;;;;;;5076276;28;20020;-68
2020/12/17 10:46:28;;;;;;;57.53;27.83;;;256.30;1971.20;;;;;;5076418;28;20039;-68
2020/12/17 10:48:54;;;;;;;73.47;37.33;;;256.80;1945.60;;;;;;5077630;28;20028;-68
2020/12/17 10:51:20;;;;;;;68.40;33.83;;;281.80;1945.60;;;;;;5077094;28;20025;-68
2020/12/17 10:53:46;;;;;;;71.95;33.15;;;282.40;1894.40;;;;;;5066214;28;20020;-67
2020/12/17 10:56:12;;;;;;;77.65;40.25;;;282.50;1868.80;;;;;;5076479;28;20446;-68
2020/12/17 10:58:39;;;;;;;69.00;32.58;;;282.20;1920.00;;;;;;5075544;28;20107;-69
2020/12/17 11:01:05;;;;;;;71.82;32.00;;;282.10;1894.40;;;;;;5070737;28;20024;-67
2020/12/17 11:03:31;;;;;;;46.38;26.35;;;281.80;1920.00;;;;;;5063471;28;20056;-68
2020/12/17 11:05:57;;;;;;;70.85;35.47;;;281.80;1920.00;;;;;;5073304;28;20125;-64
2020/12/17 11:08:24;;;;;;;66.97;35.38;;;256.30;1945.60;;;;;;5058314;28;20459;-67
2020/12/17 11:10:50;;;;;;;59.25;28.63;;;231.00;2022.40;;;;;;5065529;28;20020;-67
2020/12/17 11:13:16;;;;;;;70.07;34.08;;;231.20;2022.40;;;;;;5073018;28;20024;-65
2020/12/17 11:15:42;;;;;;;59.50;29.75;;;230.90;2073.60;;;;;;5056100;28;20044;-67
2020/12/17 11:18:09;;;;;;;66.78;31.25;;;231.10;2048.00;;;;;;5055248;28;20040;-65
2020/12/17 11:20:36;;;;;;;64.97;30.80;;;231.20;2048.00;;;;;;5054717;28;20538;-67
2020/12/17 11:23:03;;;;;;;65.43;29.15;;;256.80;1996.80;;;;;;5055113;28;20115;-68
2020/12/17 11:25:29;;;;;;;57.50;29.75;;;256.90;1971.20;;;;;;5055684;28;20416;-65
2020/12/17 11:27:55;;;;;;;52.17;27.73;;;282.10;1894.40;;;;;;5055113;28;20040;-65
2020/12/17 11:30:20;;;;;;;47.03;25.17;;;281.90;1945.60;;;;;;5072588;28;20028;-65
2020/12/17 11:32:46;;;;;;;50.63;28.75;;;282.50;1920.00;;;;;;5059419;28;20033;-66
2020/12/17 11:35:12;;;;;;;64.47;35.70;;;282.00;1920.00;;;;;;5055605;28;20425;-67
2020/12/17 11:37:38;;;;;;;47.05;26.70;;;282.40;1920.00;;;;;;5067008;28;20028;-65
2020/12/17 11:40:04;;;;;;;43.03;24.58;;;282.40;1920.00;;;;;;5075948;28;20025;-66
2020/12/17 11:42:30;;;;;;;47.30;27.23;;;282.40;1920.00;;;;;;5075560;28;20099;-66
2020/12/17 11:44:56;;;;;;;44.58;23.95;;;282.50;1894.40;;;;;;5075549;28;20496;-67
2020/12/17 11:47:22;;;;;;;46.15;24.55;;;282.40;1945.60;;;;;;5075300;28;20085;-66
2020/12/17 11:49:51;;;;;;;46.70;24.67;;;282.20;1945.60;;;;;;5076200;28;20020;-65
2020/12/17 11:52:17;;;;;;;47.67;25.63;;;282.20;1945.60;;;;;;5075638;28;20122;-66
2020/12/17 11:54:43;;;;;;;51.72;28.40;;;282.50;1920.00;;;;;;5075307;28;20123;-67
2020/12/17 11:57:11;;;;;;;54.33;27.80;;;307.30;1920.00;;;;;;5072324;28;20028;-66
2020/12/17 11:59:36;;;;;;;45.88;25.83;;;307.50;1894.40;;;;;;5072450;28;20025;-64
2020/12/17 12:02:05;;;;;;;50.30;26.63;;;333.20;1817.60;;;;;;5066444;28;20103;-67
2020/12/17 12:04:31;;;;;;;;;;;333.30;1792.00;;;;;;5059913;28;20049;-69
2020/12/17 12:06:57;;;;;;;72.72;41.65;;;358.40;1766.40;;;;;;5069708;28;19909;-67
2020/12/17 12:09:22;;;;;;;57.55;34.10;;;358.90;1715.20;;;;;;5056817;28;20052;-67
2020/12/17 12:11:54;;;;;;;61.08;34.33;;;384.40;1664.00;;;;;;5056383;28;20025;-68
2020/12/17 12:14:20;;;;;;;50.20;29.42;;;384.40;1638.40;;;;;;5056429;28;20313;-67